createdAt,value
2022-11-23T00:00:18.185Z,97484.91
2022-11-23T00:05:20.851Z,97489.81
2022-11-23T00:10:23.662Z,97490.09
2022-11-23T00:15:27.666Z,97481.63
2022-11-23T00:20:30.272Z,97494.47
2022-11-23T00:25:32.925Z,97485.19
2022-11-23T00:30:36.930Z,97495.09
2022-11-23T00:35:40.416Z,97496.78
2022-11-23T00:40:43.043Z,97499.03
2022-11-23T00:45:49.375Z,97499.41
2022-11-23T00:50:52.073Z,97508.28
2022-11-23T00:55:55.308Z,97510.50
2022-11-23T01:01:05.196Z,97511.69
2022-11-23T01:06:12.735Z,97521.81
2022-11-23T01:11:15.387Z,97529.28
2022-11-23T01:16:24.122Z,97525.72
2022-11-23T01:21:28.512Z,97531.38
2022-11-23T01:26:31.169Z,97539.06
2022-11-23T01:31:35.282Z,97535.72
2022-11-23T01:36:38.017Z,97533.50
2022-11-23T01:41:42.574Z,97538.16
2022-11-23T01:46:46.557Z,97539.81
2022-11-23T01:51:50.934Z,97546.81
2022-11-23T01:56:56.601Z,97547.63
2022-11-23T02:02:01.950Z,97543.75
2022-11-23T02:07:05.941Z,97560.28
2022-11-23T02:12:11.952Z,97568.41
2022-11-23T02:17:15.949Z,97559.59
2022-11-23T02:22:23.343Z,97561.81
2022-11-23T02:27:27.643Z,97570.63
2022-11-23T02:32:34.984Z,97566.56
2022-11-23T02:37:37.876Z,97569.47
2022-11-23T02:42:42.013Z,97565.03
2022-11-23T02:47:44.633Z,97570.38
2022-11-23T02:52:47.293Z,97580.75
2022-11-23T02:57:52.847Z,97582.47
2022-11-23T03:02:55.635Z,97577.59
2022-11-23T03:07:58.365Z,97581.56
2022-11-23T03:13:02.627Z,97583.03
2022-11-23T03:18:09.372Z,97586.97
2022-11-23T03:23:12.175Z,97591.75
2022-11-23T03:28:17.360Z,97591.03
2022-11-23T03:33:20.266Z,97593.13
2022-11-23T03:38:23.962Z,97591.94
2022-11-23T03:43:29.625Z,97594.03
2022-11-23T03:48:33.199Z,97594.03
2022-11-23T03:53:35.878Z,97589.59
2022-11-23T03:58:40.350Z,97597.00
2022-11-23T04:03:46.910Z,97591.91
2022-11-23T04:09:01.732Z,97597.00
2022-11-23T04:14:29.292Z,97589.91
2022-11-23T04:19:32.863Z,97590.94
2022-11-23T04:24:36.116Z,97585.69
2022-11-23T04:29:42.387Z,97588.59
2022-11-23T04:34:45.672Z,97589.63
2022-11-23T04:39:49.697Z,97589.84
2022-11-23T04:44:57.343Z,97586.25
2022-11-23T04:50:00.193Z,97580.09
2022-11-23T04:55:02.904Z,97589.97
2022-11-23T05:00:10.641Z,97593.09
2022-11-23T05:05:13.475Z,97597.03
2022-11-23T05:10:16.219Z,97603.97
2022-11-23T05:15:20.596Z,97602.56
2022-11-23T05:20:24.260Z,97602.78
2022-11-23T05:25:27.943Z,97602.22
2022-11-23T05:30:38.719Z,97616.84
2022-11-23T05:35:41.765Z,97609.25
2022-11-23T05:40:46.144Z,97615.28
2022-11-23T05:45:51.608Z,97628.03
2022-11-23T05:50:58.581Z,97623.50
2022-11-23T05:56:10.274Z,97620.69
2022-11-23T06:01:25.044Z,97623.59
2022-11-23T06:06:30.495Z,97626.47
2022-11-23T06:11:35.183Z,97629.00
2022-11-23T06:16:45.325Z,97630.63
2022-11-23T06:22:13.422Z,97627.94
2022-11-23T06:27:23.952Z,97629.66
2022-11-23T06:32:28.983Z,97630.28
2022-11-23T06:37:31.764Z,97620.50
2022-11-23T06:42:39.519Z,97623.38
2022-11-23T06:47:49.553Z,97636.94
2022-11-23T06:52:57.190Z,97645.97
2022-11-23T06:58:10.766Z,97639.22
2022-11-23T07:03:19.685Z,97640.28
2022-11-23T07:08:24.424Z,97643.41
2022-11-23T07:13:29.478Z,97645.47
2022-11-23T07:18:33.611Z,97644.66
2022-11-23T07:23:40.869Z,97652.88
2022-11-23T07:28:44.379Z,97658.81
2022-11-23T07:33:49.570Z,97654.47
2022-11-23T07:38:52.341Z,97659.97
2022-11-23T07:43:56.629Z,97670.78
2022-11-23T07:49:02.174Z,97673.59
2022-11-23T07:54:04.897Z,97677.53
2022-11-23T07:59:07.465Z,97683.69
2022-11-23T08:04:11.431Z,97694.78
2022-11-23T08:09:14.087Z,97692.28
2022-11-23T08:14:16.699Z,97702.50
2022-11-23T08:19:20.684Z,97706.59
2022-11-23T08:24:23.512Z,97694.50
2022-11-23T08:29:26.129Z,97701.25
2022-11-23T08:34:30.518Z,97699.91
2022-11-23T08:39:33.284Z,97692.38
2022-11-23T08:44:35.952Z,97706.41
2022-11-23T08:49:39.950Z,97693.72
2022-11-23T08:54:42.543Z,97706.06
2022-11-23T08:59:45.226Z,97711.63
2022-11-23T09:04:49.350Z,97708.38
2022-11-23T09:09:51.958Z,97713.63
2022-11-23T09:14:54.662Z,97720.81
2022-11-23T09:19:58.681Z,97702.44
2022-11-23T09:25:01.391Z,97712.81
2022-11-23T09:30:04.842Z,97719.22
2022-11-23T09:35:09.879Z,97727.66
2022-11-23T09:40:15.933Z,97727.53
2022-11-23T09:45:23.145Z,97730.66
2022-11-23T09:50:30.057Z,97735.56
2022-11-23T09:55:38.492Z,97736.41
2022-11-23T10:00:45.009Z,97738.69
2022-11-23T10:05:58.181Z,97728.38
2022-11-23T10:11:08.672Z,97723.84
2022-11-23T10:16:22.080Z,97727.66
2022-11-23T10:21:30.970Z,97719.38
2022-11-23T10:26:36.433Z,97717.72
2022-11-23T10:31:39.067Z,97716.75
2022-11-23T10:36:43.597Z,97719.97
2022-11-23T10:41:46.517Z,97720.28
2022-11-23T10:46:49.130Z,97711.09
2022-11-23T10:51:56.222Z,97693.91
2022-11-23T10:57:00.558Z,97674.91
2022-11-23T11:02:15.593Z,97674.59
2022-11-23T11:07:25.780Z,97665.34
2022-11-23T11:12:29.742Z,97674.84
2022-11-23T11:17:34.460Z,97659.22
2022-11-23T11:22:43.293Z,97644.63
2022-11-23T11:27:52.230Z,97634.03
2022-11-23T11:32:58.628Z,97625.06
2022-11-23T11:38:05.877Z,97625.97
2022-11-23T11:43:12.953Z,97620.88
2022-11-23T11:48:20.030Z,97614.13
2022-11-23T11:53:29.329Z,97610.84
2022-11-23T11:58:32.192Z,97619.31
2022-11-23T12:03:41.683Z,97620.94
2022-11-23T12:08:48.974Z,97634.75
2022-11-23T12:13:52.395Z,97632.28
2022-11-23T12:19:08.277Z,97620.34
2022-11-23T12:24:18.665Z,97611.31
2022-11-23T12:29:38.473Z,97609.66
2022-11-23T12:34:53.507Z,97605.97
2022-11-23T12:40:18.866Z,97604.78
2022-11-23T12:45:40.806Z,97607.84
2022-11-23T12:50:48.486Z,97598.19
2022-11-23T12:55:57.171Z,97595.97
2022-11-23T13:01:02.314Z,97595.38
2022-11-23T13:06:32.707Z,97574.84
2022-11-23T13:11:49.712Z,97567.66
2022-11-23T13:17:06.784Z,97550.81
2022-11-23T13:22:12.738Z,97550.25
2022-11-23T13:27:53.396Z,97555.44
2022-11-23T13:33:02.838Z,97555.88
2022-11-23T13:38:41.770Z,97546.72
2022-11-23T13:43:44.470Z,97555.78
2022-11-23T13:48:58.023Z,97547.19
2022-11-23T13:54:03.296Z,97546.56
2022-11-23T13:59:29.145Z,97536.34
2022-11-23T14:04:34.873Z,97540.50
2022-11-23T14:09:44.736Z,97535.63
2022-11-23T14:14:55.150Z,97535.84
2022-11-23T14:20:21.636Z,97528.53
2022-11-23T14:25:35.512Z,97534.28
2022-11-23T14:30:45.910Z,97531.53
2022-11-23T14:35:58.443Z,97533.00
2022-11-23T14:41:06.644Z,97533.44
2022-11-23T14:46:16.187Z,97538.63
2022-11-23T14:51:21.980Z,97539.91
2022-11-23T14:56:32.803Z,97544.84
2022-11-23T15:01:35.852Z,97543.69
2022-11-23T15:06:45.720Z,97554.78
2022-11-23T15:11:49.317Z,97559.31
2022-11-23T15:16:52.125Z,97576.13
2022-11-23T15:21:56.504Z,97591.72
2022-11-23T15:27:11.061Z,97597.06
2022-11-23T15:32:33.271Z,97603.25
2022-11-23T15:37:44.029Z,97614.91
2022-11-23T15:42:48.290Z,97621.91
2022-11-23T15:47:51.049Z,97623.38
2022-11-23T15:52:55.033Z,97638.53
2022-11-23T15:57:57.962Z,97649.41
2022-11-23T16:03:22.028Z,97658.66
2022-11-23T16:08:26.451Z,97673.25
2022-11-23T16:13:40.218Z,97682.28
2022-11-23T16:18:44.999Z,97696.88
2022-11-23T16:23:51.241Z,97702.66
2022-11-23T16:28:55.240Z,97714.31
2022-11-23T16:33:57.925Z,97715.97
2022-11-23T16:39:05.660Z,97725.38
2022-11-23T16:44:08.669Z,97721.16
2022-11-23T16:49:16.168Z,97733.59
2022-11-23T16:54:34.010Z,97745.28
2022-11-23T16:59:36.824Z,97750.63
2022-11-23T17:04:39.541Z,97759.88
2022-11-23T17:09:43.638Z,97763.78
2022-11-23T17:14:48.792Z,97770.91
2022-11-23T17:19:52.242Z,97762.66
2022-11-23T17:24:56.291Z,97769.25
2022-11-23T17:30:01.066Z,97784.25
2022-11-23T17:35:04.116Z,97803.25
2022-11-23T17:40:14.579Z,97808.84
2022-11-23T17:45:17.433Z,97817.81
2022-11-23T17:50:20.434Z,97815.31
2022-11-23T17:55:24.465Z,97810.25
2022-11-23T18:00:27.361Z,97812.47
2022-11-23T18:05:30.874Z,97824.44
2022-11-23T18:10:34.941Z,97830.63
2022-11-23T18:15:37.679Z,97830.72
2022-11-23T18:20:40.432Z,97834.31
2022-11-23T18:25:46.027Z,97833.81
2022-11-23T18:30:48.824Z,97841.75
2022-11-23T18:35:51.788Z,97854.78
2022-11-23T18:40:55.822Z,97853.00
2022-11-23T18:45:58.597Z,97863.97
2022-11-23T18:51:02.961Z,97861.31
2022-11-23T18:56:08.611Z,97866.75
2022-11-23T19:01:13.054Z,97893.78
2022-11-23T19:06:16.986Z,97892.69
2022-11-23T19:11:22.932Z,97897.28
2022-11-23T19:16:26.855Z,97904.63
2022-11-23T19:21:30.960Z,97912.28
2022-11-23T19:26:34.992Z,97924.66
2022-11-23T19:31:37.685Z,97926.50
2022-11-23T19:36:40.678Z,97931.47
2022-11-23T19:41:44.694Z,97942.19
2022-11-23T19:46:47.472Z,97935.34
2022-11-23T19:51:52.263Z,97940.44
2022-11-23T19:56:56.302Z,97952.97
2022-11-23T20:01:59.057Z,97960.88
2022-11-23T20:07:01.810Z,97979.38
2022-11-23T20:12:06.230Z,97974.94
2022-11-23T20:17:08.889Z,97979.00
2022-11-23T20:22:11.526Z,97987.88
2022-11-23T20:27:15.541Z,97989.81
2022-11-23T20:32:18.210Z,97997.06
2022-11-23T20:37:21.085Z,97995.03
2022-11-23T20:42:25.117Z,97992.75
2022-11-23T20:47:28.322Z,98010.97
2022-11-23T20:52:31.124Z,98016.09
2022-11-23T20:57:35.524Z,98033.13
2022-11-23T21:02:38.380Z,98025.16
2022-11-23T21:07:41.176Z,98020.34
2022-11-23T21:13:02.879Z,98030.06
2022-11-23T21:18:05.771Z,98043.38
2022-11-23T21:23:08.489Z,98043.75
2022-11-23T21:28:12.563Z,98047.69
2022-11-23T21:33:15.354Z,98059.81
2022-11-23T21:38:18.051Z,98056.66
2022-11-23T21:43:22.109Z,98070.34
2022-11-23T21:48:24.791Z,98082.13
2022-11-23T21:53:27.486Z,98088.44
2022-11-23T21:58:31.916Z,98086.25
2022-11-23T22:03:37.427Z,98093.72
2022-11-23T22:08:43.309Z,98103.63
2022-11-23T22:13:47.435Z,98109.38
2022-11-23T22:18:55.414Z,98116.28
2022-11-23T22:23:59.428Z,98117.66
2022-11-23T22:29:06.580Z,98119.53
2022-11-23T22:34:11.629Z,98136.47
2022-11-23T22:39:14.342Z,98137.84
2022-11-23T22:44:18.372Z,98143.91
2022-11-23T22:49:21.078Z,98153.50
2022-11-23T22:54:23.952Z,98152.91
2022-11-23T22:59:28.222Z,98168.34
2022-11-23T23:04:31.315Z,98171.72
2022-11-23T23:09:34.306Z,98175.84
2022-11-23T23:14:38.404Z,98181.31
2022-11-23T23:19:41.329Z,98190.94
2022-11-23T23:24:44.892Z,98195.13
2022-11-23T23:29:48.897Z,98190.47
2022-11-23T23:34:51.658Z,98206.31
2022-11-23T23:39:54.306Z,98205.97
2022-11-23T23:44:58.315Z,98217.41
2022-11-23T23:50:00.991Z,98219.25
2022-11-23T23:55:03.661Z,98218.38
